sensor_id;sensor_type;location;lat;lon;timestamp;pressure;altitude;pressure_sealevel;temperature;humidity
24486;BME280;13449;49.374;8.584;2023-04-23T00:00:36;99947.41;;;13.23;100.00
24486;BME280;13449;49.374;8.584;2023-04-23T00:03:05;99955.16;;;13.24;100.00
24486;BME280;13449;49.374;8.584;2023-04-23T00:05:35;99947.19;;;13.38;100.00
24486;BME280;13449;49.374;8.584;2023-04-23T00:08:03;99946.38;;;13.37;100.00
24486;BME280;13449;49.374;8.584;2023-04-23T00:10:29;99949.69;;;13.26;100.00
24486;BME280;13449;49.374;8.584;2023-04-23T00:12:56;99948.03;;;13.25;100.00
24486;BME280;13449;49.374;8.584;2023-04-23T00:15:24;99950.88;;;13.30;100.00
24486;BME280;13449;49.374;8.584;2023-04-23T00:17:51;99949.22;;;13.22;100.00
24486;BME280;13449;49.374;8.584;2023-04-23T00:20:17;99946.78;;;13.21;100.00
24486;BME280;13449;49.374;8.584;2023-04-23T00:22:43;99953.94;;;13.14;100.00
24486;BME280;13449;49.374;8.584;2023-04-23T00:25:10;99951.69;;;13.10;100.00
24486;BME280;13449;49.374;8.584;2023-04-23T00:27:36;99949.44;;;13.14;100.00
24486;BME280;13449;49.374;8.584;2023-04-23T00:30:03;99952.28;;;13.06;100.00
24486;BME280;13449;49.374;8.584;2023-04-23T00:32:30;99948.25;;;13.03;100.00
24486;BME280;13449;49.374;8.584;2023-04-23T00:34:56;99952.09;;;13.01;100.00
24486;BME280;13449;49.374;8.584;2023-04-23T00:37:23;99957.00;;;12.97;100.00
24486;BME280;13449;49.374;8.584;2023-04-23T00:39:49;99959.81;;;13.02;100.00
24486;BME280;13449;49.374;8.584;2023-04-23T00:42:15;99955.56;;;13.08;100.00
24486;BME280;13449;49.374;8.584;2023-04-23T00:44:42;99958.38;;;13.00;100.00
24486;BME280;13449;49.374;8.584;2023-04-23T00:47:09;99964.50;;;13.14;100.00
24486;BME280;13449;49.374;8.584;2023-04-23T00:49:35;99956.34;;;13.15;100.00
24486;BME280;13449;49.374;8.584;2023-04-23T00:52:04;99955.97;;;13.25;100.00
24486;BME280;13449;49.374;8.584;2023-04-23T00:54:33;99954.50;;;13.16;100.00
24486;BME280;13449;49.374;8.584;2023-04-23T00:57:00;99955.75;;;13.13;100.00
24486;BME280;13449;49.374;8.584;2023-04-23T00:59:27;99955.53;;;13.15;100.00
24486;BME280;13449;49.374;8.584;2023-04-23T01:01:54;99953.31;;;13.05;100.00
24486;BME280;13449;49.374;8.584;2023-04-23T01:04:20;99953.72;;;13.02;100.00
24486;BME280;13449;49.374;8.584;2023-04-23T01:06:48;99956.97;;;13.04;100.00
24486;BME280;13449;49.374;8.584;2023-04-23T01:09:14;99956.38;;;13.02;100.00
24486;BME280;13449;49.374;8.584;2023-04-23T01:11:43;99951.88;;;12.96;100.00
24486;BME280;13449;49.374;8.584;2023-04-23T01:14:11;99956.38;;;12.95;100.00
24486;BME280;13449;49.374;8.584;2023-04-23T01:16:38;99959.41;;;12.99;100.00
24486;BME280;13449;49.374;8.584;2023-04-23T01:19:05;99954.53;;;13.02;100.00
24486;BME280;13449;49.374;8.584;2023-04-23T01:21:33;99970.00;;;12.99;100.00
24486;BME280;13449;49.374;8.584;2023-04-23T01:24:00;99962.84;;;13.06;100.00
24486;BME280;13449;49.374;8.584;2023-04-23T01:26:28;99954.13;;;13.05;100.00
24486;BME280;13449;49.374;8.584;2023-04-23T01:28:58;99961.88;;;13.00;100.00
24486;BME280;13449;49.374;8.584;2023-04-23T01:31:25;99962.69;;;12.88;100.00
24486;BME280;13449;49.374;8.584;2023-04-23T01:33:52;99966.13;;;13.01;100.00
24486;BME280;13449;49.374;8.584;2023-04-23T01:36:21;99958.59;;;12.92;100.00
24486;BME280;13449;49.374;8.584;2023-04-23T01:38:48;99963.28;;;12.96;100.00
24486;BME280;13449;49.374;8.584;2023-04-23T01:41:14;99967.97;;;13.01;100.00
24486;BME280;13449;49.374;8.584;2023-04-23T01:43:41;99967.56;;;12.97;100.00
24486;BME280;13449;49.374;8.584;2023-04-23T01:46:12;99970.38;;;13.02;100.00
24486;BME280;13449;49.374;8.584;2023-04-23T01:48:38;99977.72;;;12.94;100.00
24486;BME280;13449;49.374;8.584;2023-04-23T01:51:05;99968.16;;;12.86;100.00
24486;BME280;13449;49.374;8.584;2023-04-23T01:53:32;99969.41;;;13.03;100.00
24486;BME280;13449;49.374;8.584;2023-04-23T01:55:58;99968.38;;;13.04;100.00
24486;BME280;13449;49.374;8.584;2023-04-23T01:58:25;99977.31;;;12.97;100.00
24486;BME280;13449;49.374;8.584;2023-04-23T02:00:57;99972.00;;;12.90;100.00
24486;BME280;13449;49.374;8.584;2023-04-23T02:03:23;99968.56;;;12.90;100.00
24486;BME280;13449;49.374;8.584;2023-04-23T02:05:50;99979.53;;;12.93;100.00
24486;BME280;13449;49.374;8.584;2023-04-23T02:08:18;99984.63;;;12.95;100.00
24486;BME280;13449;49.374;8.584;2023-04-23T02:10:45;99986.47;;;12.94;100.00
24486;BME280;13449;49.374;8.584;2023-04-23T02:13:13;99992.75;;;12.93;100.00
24486;BME280;13449;49.374;8.584;2023-04-23T02:15:42;99988.88;;;12.82;100.00
24486;BME280;13449;49.374;8.584;2023-04-23T02:18:09;99978.94;;;12.91;100.00
24486;BME280;13449;49.374;8.584;2023-04-23T02:20:36;99985.66;;;12.94;100.00
24486;BME280;13449;49.374;8.584;2023-04-23T02:23:06;99986.66;;;12.93;100.00
24486;BME280;13449;49.374;8.584;2023-04-23T02:25:33;99988.31;;;12.80;100.00
24486;BME280;13449;49.374;8.584;2023-04-23T02:28:04;99990.72;;;12.89;100.00
24486;BME280;13449;49.374;8.584;2023-04-23T02:30:34;99991.34;;;12.91;100.00
24486;BME280;13449;49.374;8.584;2023-04-23T02:33:01;99986.25;;;12.89;100.00
24486;BME280;13449;49.374;8.584;2023-04-23T02:35:29;99989.31;;;12.93;100.00
24486;BME280;13449;49.374;8.584;2023-04-23T02:37:56;99991.53;;;12.82;100.00
24486;BME280;13449;49.374;8.584;2023-04-23T02:40:23;99988.50;;;12.85;100.00
24486;BME280;13449;49.374;8.584;2023-04-23T02:42:51;99995.00;;;12.90;100.00
24486;BME280;13449;49.374;8.584;2023-04-23T02:45:18;99986.06;;;12.84;100.00
24486;BME280;13449;49.374;8.584;2023-04-23T02:47:44;99994.59;;;12.93;100.00
24486;BME280;13449;49.374;8.584;2023-04-23T02:50:10;99992.97;;;12.92;100.00
24486;BME280;13449;49.374;8.584;2023-04-23T02:52:37;99986.47;;;12.94;100.00
24486;BME280;13449;49.374;8.584;2023-04-23T02:55:04;99985.22;;;12.83;100.00
24486;BME280;13449;49.374;8.584;2023-04-23T02:57:30;99986.47;;;12.88;100.00
24486;BME280;13449;49.374;8.584;2023-04-23T02:59:56;99978.94;;;12.84;100.00
24486;BME280;13449;49.374;8.584;2023-04-23T03:02:23;99981.56;;;12.78;100.00
24486;BME280;13449;49.374;8.584;2023-04-23T03:04:49;99987.69;;;12.98;100.00
24486;BME280;13449;49.374;8.584;2023-04-23T03:07:18;99984.22;;;12.91;100.00
24486;BME280;13449;49.374;8.584;2023-04-23T03:09:45;99987.69;;;12.78;100.00
24486;BME280;13449;49.374;8.584;2023-04-23T03:12:11;99986.25;;;12.76;100.00
24486;BME280;13449;49.374;8.584;2023-04-23T03:14:37;99983.38;;;12.64;100.00
24486;BME280;13449;49.374;8.584;2023-04-23T03:17:04;99988.06;;;12.62;100.00
24486;BME280;13449;49.374;8.584;2023-04-23T03:19:31;99983.19;;;12.72;100.00
24486;BME280;13449;49.374;8.584;2023-04-23T03:21:58;99981.34;;;12.66;100.00
24486;BME280;13449;49.374;8.584;2023-04-23T03:24:24;99977.09;;;12.65;100.00
24486;BME280;13449;49.374;8.584;2023-04-23T03:26:54;99974.03;;;12.68;100.00
24486;BME280;13449;49.374;8.584;2023-04-23T03:29:20;99978.50;;;12.61;100.00
24486;BME280;13449;49.374;8.584;2023-04-23T03:31:46;99973.78;;;12.50;100.00
24486;BME280;13449;49.374;8.584;2023-04-23T03:34:13;99978.66;;;12.46;100.00
24486;BME280;13449;49.374;8.584;2023-04-23T03:36:39;99973.59;;;12.45;100.00
24486;BME280;13449;49.374;8.584;2023-04-23T03:39:06;99983.31;;;12.44;100.00
24486;BME280;13449;49.374;8.584;2023-04-23T03:41:32;99983.97;;;12.53;100.00
24486;BME280;13449;49.374;8.584;2023-04-23T03:43:59;99982.94;;;12.47;100.00
24486;BME280;13449;49.374;8.584;2023-04-23T03:46:25;99982.94;;;12.47;100.00
24486;BME280;13449;49.374;8.584;2023-04-23T03:48:52;99979.28;;;12.42;100.00
24486;BME280;13449;49.374;8.584;2023-04-23T03:51:21;99985.09;;;12.24;100.00
24486;BME280;13449;49.374;8.584;2023-04-23T03:53:47;99989.84;;;12.42;100.00
24486;BME280;13449;49.374;8.584;2023-04-23T03:56:14;99992.09;;;12.45;100.00
24486;BME280;13449;49.374;8.584;2023-04-23T03:58:40;99989.19;;;12.26;100.00
24486;BME280;13449;49.374;8.584;2023-04-23T04:01:06;99988.78;;;12.23;100.00
24486;BME280;13449;49.374;8.584;2023-04-23T04:03:36;99993.44;;;12.21;100.00
24486;BME280;13449;49.374;8.584;2023-04-23T04:06:02;99986.09;;;12.09;100.00
24486;BME280;13449;49.374;8.584;2023-04-23T04:08:29;99992.75;;;12.05;100.00
24486;BME280;13449;49.374;8.584;2023-04-23T04:11:05;99983.84;;;12.06;100.00
24486;BME280;13449;49.374;8.584;2023-04-23T04:13:31;99992.97;;;12.10;100.00
24486;BME280;13449;49.374;8.584;2023-04-23T04:15:57;99995.25;;;12.20;100.00
24486;BME280;13449;49.374;8.584;2023-04-23T04:18:24;99999.69;;;12.13;100.00
24486;BME280;13449;49.374;8.584;2023-04-23T04:20:50;100000.28;;;12.15;100.00
24486;BME280;13449;49.374;8.584;2023-04-23T04:23:17;100003.53;;;12.10;100.00
24486;BME280;13449;49.374;8.584;2023-04-23T04:25:43;100005.13;;;12.05;100.00
24486;BME280;13449;49.374;8.584;2023-04-23T04:28:11;100003.72;;;12.09;100.00
24486;BME280;13449;49.374;8.584;2023-04-23T04:30:37;100000.69;;;12.12;100.00
24486;BME280;13449;49.374;8.584;2023-04-23T04:33:04;99996.78;;;12.01;100.00
24486;BME280;13449;49.374;8.584;2023-04-23T04:35:31;99993.75;;;12.04;100.00
24486;BME280;13449;49.374;8.584;2023-04-23T04:37:57;99993.56;;;11.99;100.00
24486;BME280;13449;49.374;8.584;2023-04-23T04:40:24;99994.97;;;12.02;100.00
24486;BME280;13449;49.374;8.584;2023-04-23T04:42:51;99986.06;;;12.03;100.00
24486;BME280;13449;49.374;8.584;2023-04-23T04:45:18;99996.00;;;12.07;100.00
24486;BME280;13449;49.374;8.584;2023-04-23T04:47:44;99999.91;;;12.18;100.00
24486;BME280;13449;49.374;8.584;2023-04-23T04:50:13;99996.66;;;12.16;100.00
24486;BME280;13449;49.374;8.584;2023-04-23T04:52:40;99998.31;;;12.24;100.00
24486;BME280;13449;49.374;8.584;2023-04-23T04:55:06;100007.03;;;12.24;100.00
24486;BME280;13449;49.374;8.584;2023-04-23T04:57:33;100008.03;;;12.16;100.00
24486;BME280;13449;49.374;8.584;2023-04-23T05:00:00;100005.00;;;12.20;100.00
24486;BME280;13449;49.374;8.584;2023-04-23T05:02:27;100005.41;;;12.23;100.00
24486;BME280;13449;49.374;8.584;2023-04-23T05:04:53;99998.72;;;12.27;100.00
24486;BME280;13449;49.374;8.584;2023-04-23T05:07:20;100009.28;;;12.27;100.00
24486;BME280;13449;49.374;8.584;2023-04-23T05:09:47;100006.44;;;12.22;100.00
24486;BME280;13449;49.374;8.584;2023-04-23T05:12:13;100008.09;;;12.36;100.00
24486;BME280;13449;49.374;8.584;2023-04-23T05:14:40;100010.50;;;12.31;100.00
24486;BME280;13449;49.374;8.584;2023-04-23T05:17:06;100017.44;;;12.26;100.00
24486;BME280;13449;49.374;8.584;2023-04-23T05:19:32;100011.16;;;12.33;100.00
24486;BME280;13449;49.374;8.584;2023-04-23T05:21:59;100019.09;;;12.47;100.00
24486;BME280;13449;49.374;8.584;2023-04-23T05:24:28;100016.03;;;12.36;100.00
24486;BME280;13449;49.374;8.584;2023-04-23T05:26:54;100014.25;;;12.50;100.00
24486;BME280;13449;49.374;8.584;2023-04-23T05:29:21;100011.81;;;12.49;100.00
24486;BME280;13449;49.374;8.584;2023-04-23T05:31:48;100011.81;;;12.49;100.00
24486;BME280;13449;49.374;8.584;2023-04-23T05:34:14;100005.53;;;12.63;100.00
24486;BME280;13449;49.374;8.584;2023-04-23T05:36:41;100006.56;;;12.75;100.00
24486;BME280;13449;49.374;8.584;2023-04-23T05:39:07;100010.03;;;12.76;100.00
24486;BME280;13449;49.374;8.584;2023-04-23T05:41:34;100010.66;;;12.84;100.00
24486;BME280;13449;49.374;8.584;2023-04-23T05:44:00;100005.97;;;12.86;100.00
24486;BME280;13449;49.374;8.584;2023-04-23T05:46:29;100009.66;;;12.99;100.00
24486;BME280;13449;49.374;8.584;2023-04-23T05:48:55;100007.22;;;12.91;100.00
24486;BME280;13449;49.374;8.584;2023-04-23T05:51:22;99997.03;;;12.88;100.00
24486;BME280;13449;49.374;8.584;2023-04-23T05:53:48;99996.81;;;12.89;100.00
24486;BME280;13449;49.374;8.584;2023-04-23T05:56:14;100001.50;;;12.80;100.00
24486;BME280;13449;49.374;8.584;2023-04-23T05:58:41;99997.63;;;12.96;100.00
24486;BME280;13449;49.374;8.584;2023-04-23T06:01:10;99997.63;;;13.03;100.00
24486;BME280;13449;49.374;8.584;2023-04-23T06:03:36;99992.16;;;13.11;100.00
24486;BME280;13449;49.374;8.584;2023-04-23T06:06:03;99991.94;;;13.19;100.00
24486;BME280;13449;49.374;8.584;2023-04-23T06:08:29;100001.13;;;13.37;100.00
24486;BME280;13449;49.374;8.584;2023-04-23T06:10:56;100005.41;;;13.44;100.00
24486;BME280;13449;49.374;8.584;2023-04-23T06:13:22;100007.03;;;13.39;100.00
24486;BME280;13449;49.374;8.584;2023-04-23T06:15:53;100005.22;;;13.46;100.00
24486;BME280;13449;49.374;8.584;2023-04-23T06:18:19;100000.44;;;13.74;100.00
24486;BME280;13449;49.374;8.584;2023-04-23T06:20:45;100002.41;;;13.99;100.00
24486;BME280;13449;49.374;8.584;2023-04-23T06:23:13;99998.22;;;14.30;100.00
24486;BME280;13449;49.374;8.584;2023-04-23T06:25:39;100000.31;;;14.91;100.00
24486;BME280;13449;49.374;8.584;2023-04-23T06:28:06;99993.94;;;14.29;100.00
24486;BME280;13449;49.374;8.584;2023-04-23T06:30:32;99998.41;;;14.35;100.00
24486;BME280;13449;49.374;8.584;2023-04-23T06:32:58;99996.66;;;14.60;100.00
24486;BME280;13449;49.374;8.584;2023-04-23T06:35:25;99995.63;;;14.93;100.00
24486;BME280;13449;49.374;8.584;2023-04-23T06:37:51;99992.53;;;14.96;100.00
24486;BME280;13449;49.374;8.584;2023-04-23T06:40:17;99987.78;;;14.80;100.00
24486;BME280;13449;49.374;8.584;2023-04-23T06:42:47;99983.16;;;14.93;100.00
24486;BME280;13449;49.374;8.584;2023-04-23T06:45:13;99991.19;;;15.12;100.00
24486;BME280;13449;49.374;8.584;2023-04-23T06:47:40;99985.53;;;14.77;100.00
24486;BME280;13449;49.374;8.584;2023-04-23T06:50:09;99983.50;;;14.72;100.00
24486;BME280;13449;49.374;8.584;2023-04-23T06:52:36;99978.09;;;14.60;100.00
24486;BME280;13449;49.374;8.584;2023-04-23T06:55:02;99979.53;;;14.88;100.00
24486;BME280;13449;49.374;8.584;2023-04-23T06:57:28;99979.22;;;15.46;100.00
24486;BME280;13449;49.374;8.584;2023-04-23T06:59:55;99986.19;;;15.65;100.00
24486;BME280;13449;49.374;8.584;2023-04-23T07:02:23;99971.09;;;15.84;100.00
24486;BME280;13449;49.374;8.584;2023-04-23T07:04:50;99967.84;;;15.82;100.00
24486;BME280;13449;49.374;8.584;2023-04-23T07:07:16;99971.47;;;15.88;100.00
24486;BME280;13449;49.374;8.584;2023-04-23T07:09:43;99972.03;;;16.08;100.00
24486;BME280;13449;49.374;8.584;2023-04-23T07:12:09;99972.94;;;15.84;100.00
24486;BME280;13449;49.374;8.584;2023-04-23T07:14:36;99968.94;;;16.11;100.00
24486;BME280;13449;49.374;8.584;2023-04-23T07:17:02;99965.97;;;16.20;100.00
24486;BME280;13449;49.374;8.584;2023-04-23T07:19:29;99958.91;;;16.13;100.00
24486;BME280;13449;49.374;8.584;2023-04-23T07:21:55;99961.34;;;15.97;100.00
24486;BME280;13449;49.374;8.584;2023-04-23T07:24:21;99963.50;;;16.36;100.00
24486;BME280;13449;49.374;8.584;2023-04-23T07:26:48;99953.63;;;16.25;100.00
24486;BME280;13449;49.374;8.584;2023-04-23T07:29:17;99955.38;;;16.73;100.00
24486;BME280;13449;49.374;8.584;2023-04-23T07:31:46;99953.81;;;16.42;100.00
24486;BME280;13449;49.374;8.584;2023-04-23T07:34:13;99948.78;;;16.64;100.00
24486;BME280;13449;49.374;8.584;2023-04-23T07:36:39;99947.53;;;16.36;100.00
24486;BME280;13449;49.374;8.584;2023-04-23T07:39:05;99944.97;;;16.00;100.00
24486;BME280;13449;49.374;8.584;2023-04-23T07:43:13;99943.22;;;15.94;100.00
24486;BME280;13449;49.374;8.584;2023-04-23T07:45:39;99943.50;;;15.85;100.00
24486;BME280;13449;49.374;8.584;2023-04-23T07:48:05;99938.38;;;15.29;100.00
24486;BME280;13449;49.374;8.584;2023-04-23T07:50:32;99935.69;;;15.72;100.00
24486;BME280;13449;49.374;8.584;2023-04-23T07:52:58;99939.88;;;16.58;100.00
24486;BME280;13449;49.374;8.584;2023-04-23T07:55:25;99939.03;;;17.00;100.00
24486;BME280;13449;49.374;8.584;2023-04-23T07:57:52;99935.31;;;16.47;100.00
24486;BME280;13449;49.374;8.584;2023-04-23T08:00:20;99943.38;;;16.41;100.00
24486;BME280;13449;49.374;8.584;2023-04-23T08:02:52;99935.97;;;15.64;100.00
24486;BME280;13449;49.374;8.584;2023-04-23T08:05:19;99933.25;;;15.89;100.00
24486;BME280;13449;49.374;8.584;2023-04-23T08:07:45;99939.84;;;17.00;100.00
24486;BME280;13449;49.374;8.584;2023-04-23T08:10:12;99936.81;;;17.56;100.00
24486;BME280;13449;49.374;8.584;2023-04-23T08:12:38;99933.47;;;17.48;100.00
24486;BME280;13449;49.374;8.584;2023-04-23T08:15:05;99927.56;;;16.99;100.00
24486;BME280;13449;49.374;8.584;2023-04-23T08:17:32;99926.91;;;16.62;100.00
24486;BME280;13449;49.374;8.584;2023-04-23T08:19:58;99922.94;;;17.30;100.00
24486;BME280;13449;49.374;8.584;2023-04-23T08:22:25;99920.09;;;17.72;100.00
24486;BME280;13449;49.374;8.584;2023-04-23T08:24:53;99909.34;;;17.79;100.00
24486;BME280;13449;49.374;8.584;2023-04-23T08:27:22;99915.56;;;17.72;100.00
24486;BME280;13449;49.374;8.584;2023-04-23T08:29:48;99909.59;;;18.22;100.00
24486;BME280;13449;49.374;8.584;2023-04-23T08:32:15;99908.63;;;18.12;100.00
24486;BME280;13449;49.374;8.584;2023-04-23T08:34:42;99903.81;;;18.26;100.00
24486;BME280;13449;49.374;8.584;2023-04-23T08:37:08;99900.91;;;19.28;100.00
24486;BME280;13449;49.374;8.584;2023-04-23T08:39:48;99903.31;;;19.30;100.00
24486;BME280;13449;49.374;8.584;2023-04-23T08:42:22;99905.63;;;19.43;100.00
24486;BME280;13449;49.374;8.584;2023-04-23T08:44:52;99905.66;;;20.14;100.00
24486;BME280;13449;49.374;8.584;2023-04-23T08:47:25;99894.88;;;20.04;100.00
24486;BME280;13449;49.374;8.584;2023-04-23T08:49:57;99894.88;;;20.04;100.00
24486;BME280;13449;49.374;8.584;2023-04-23T08:52:30;99894.25;;;20.24;100.00
24486;BME280;13449;49.374;8.584;2023-04-23T08:55:00;99894.66;;;20.11;100.00
24486;BME280;13449;49.374;8.584;2023-04-23T08:57:26;99895.84;;;19.93;100.00
24486;BME280;13449;49.374;8.584;2023-04-23T08:59:53;99887.06;;;20.51;100.00
24486;BME280;13449;49.374;8.584;2023-04-23T09:02:21;99895.19;;;19.03;100.00
24486;BME280;13449;49.374;8.584;2023-04-23T09:04:48;99883.81;;;19.95;100.00
24486;BME280;13449;49.374;8.584;2023-04-23T09:07:17;99888.97;;;20.29;100.00
24486;BME280;13449;49.374;8.584;2023-04-23T09:09:49;99891.28;;;19.27;100.00
24486;BME280;13449;49.374;8.584;2023-04-23T09:12:15;99895.31;;;18.74;100.00
24486;BME280;13449;49.374;8.584;2023-04-23T09:14:42;99880.50;;;20.10;100.00
24486;BME280;13449;49.374;8.584;2023-04-23T09:17:09;99878.38;;;20.12;100.00
24486;BME280;13449;49.374;8.584;2023-04-23T09:19:38;99871.97;;;20.13;100.00
24486;BME280;13449;49.374;8.584;2023-04-23T09:22:05;99878.06;;;20.36;100.00
24486;BME280;13449;49.374;8.584;2023-04-23T09:24:33;99867.84;;;21.02;100.00
24486;BME280;13449;49.374;8.584;2023-04-23T09:26:59;99869.03;;;20.42;100.00
24486;BME280;13449;49.374;8.584;2023-04-23T09:29:26;99863.09;;;19.80;100.00
24486;BME280;13449;49.374;8.584;2023-04-23T09:32:04;99855.94;;;19.86;100.00
24486;BME280;13449;49.374;8.584;2023-04-23T09:34:33;99862.06;;;20.14;100.00
24486;BME280;13449;49.374;8.584;2023-04-23T09:37:00;99864.34;;;19.73;100.00
24486;BME280;13449;49.374;8.584;2023-04-23T09:39:28;99860.09;;;19.55;100.00
24486;BME280;13449;49.374;8.584;2023-04-23T09:42:01;99852.31;;;19.09;100.00
24486;BME280;13449;49.374;8.584;2023-04-23T09:44:32;99852.41;;;18.98;100.00
24486;BME280;13449;49.374;8.584;2023-04-23T09:47:07;99837.84;;;19.49;100.00
24486;BME280;13449;49.374;8.584;2023-04-23T09:49:46;99843.28;;;19.76;100.00
24486;BME280;13449;49.374;8.584;2023-04-23T09:52:16;99840.03;;;19.52;100.00
24486;BME280;13449;49.374;8.584;2023-04-23T09:54:44;99835.41;;;20.24;100.00
24486;BME280;13449;49.374;8.584;2023-04-23T09:57:11;99836.22;;;20.94;100.00
24486;BME280;13449;49.374;8.584;2023-04-23T09:59:40;99826.09;;;21.01;100.00
24486;BME280;13449;49.374;8.584;2023-04-23T10:02:18;99818.25;;;20.89;100.00
24486;BME280;13449;49.374;8.584;2023-04-23T10:04:49;99820.06;;;21.26;100.00
24486;BME280;13449;49.374;8.584;2023-04-23T10:07:22;99813.13;;;20.83;100.00
24486;BME280;13449;49.374;8.584;2023-04-23T10:09:49;99815.53;;;20.10;100.00
24486;BME280;13449;49.374;8.584;2023-04-23T10:12:18;99802.50;;;20.18;100.00
24486;BME280;13449;49.374;8.584;2023-04-23T10:15:06;99809.97;;;20.16;100.00
24486;BME280;13449;49.374;8.584;2023-04-23T10:17:34;99800.19;;;20.00;100.00
24486;BME280;13449;49.374;8.584;2023-04-23T10:20:05;99797.56;;;19.73;100.00
24486;BME280;13449;49.374;8.584;2023-04-23T10:22:34;99800.16;;;19.95;100.00
24486;BME280;13449;49.374;8.584;2023-04-23T10:25:04;99808.34;;;19.61;100.00
24486;BME280;13449;49.374;8.584;2023-04-23T10:27:37;99803.09;;;19.44;100.00
24486;BME280;13449;49.374;8.584;2023-04-23T10:30:19;99802.72;;;19.35;100.00
24486;BME280;13449;49.374;8.584;2023-04-23T10:32:47;99795.09;;;19.66;100.00
24486;BME280;13449;49.374;8.584;2023-04-23T10:35:14;99788.53;;;19.57;100.00
24486;BME280;13449;49.374;8.584;2023-04-23T10:37:41;99784.91;;;19.19;99.74
24486;BME280;13449;49.374;8.584;2023-04-23T10:40:12;99770.44;;;20.23;100.00
24486;BME280;13449;49.374;8.584;2023-04-23T10:42:42;99769.78;;;20.81;100.00
24486;BME280;13449;49.374;8.584;2023-04-23T10:45:20;99762.38;;;21.03;100.00
24486;BME280;13449;49.374;8.584;2023-04-23T10:47:49;99768.41;;;21.41;100.00
24486;BME280;13449;49.374;8.584;2023-04-23T10:50:37;99764.16;;;21.45;97.31
24486;BME280;13449;49.374;8.584;2023-04-23T10:53:23;99756.91;;;21.45;95.03
24486;BME280;13449;49.374;8.584;2023-04-23T10:56:04;99751.88;;;19.52;96.36
24486;BME280;13449;49.374;8.584;2023-04-23T10:58:48;99752.53;;;20.24;100.00
24486;BME280;13449;49.374;8.584;2023-04-23T11:01:16;99746.19;;;20.77;100.00
24486;BME280;13449;49.374;8.584;2023-04-23T11:03:44;99761.25;;;20.46;93.40
24486;BME280;13449;49.374;8.584;2023-04-23T11:06:19;99742.66;;;20.67;91.30
24486;BME280;13449;49.374;8.584;2023-04-23T11:09:46;99742.28;;;20.48;79.34
24486;BME280;13449;49.374;8.584;2023-04-23T11:14:52;99744.38;;;20.46;81.21
24486;BME280;13449;49.374;8.584;2023-04-23T11:22:41;99730.19;;;20.88;85.24
24486;BME280;13449;49.374;8.584;2023-04-23T11:25:12;99731.78;;;20.89;68.06
24486;BME280;13449;49.374;8.584;2023-04-23T11:27:42;99725.38;;;20.95;78.15
24486;BME280;13449;49.374;8.584;2023-04-23T11:30:22;99721.00;;;20.68;85.69
24486;BME280;13449;49.374;8.584;2023-04-23T11:32:51;99717.59;;;20.36;86.32
24486;BME280;13449;49.374;8.584;2023-04-23T11:35:20;99708.06;;;21.13;79.62
24486;BME280;13449;49.374;8.584;2023-04-23T11:37:47;99712.44;;;21.44;76.71
24486;BME280;13449;49.374;8.584;2023-04-23T11:40:17;99701.56;;;20.93;70.99
24486;BME280;13449;49.374;8.584;2023-04-23T11:42:49;99696.63;;;20.70;71.62
24486;BME280;13449;49.374;8.584;2023-04-23T11:45:26;99701.34;;;21.10;91.26
24486;BME280;13449;49.374;8.584;2023-04-23T11:47:55;99706.00;;;21.35;72.36
24486;BME280;13449;49.374;8.584;2023-04-23T11:52:50;99689.88;;;20.52;80.84
24486;BME280;13449;49.374;8.584;2023-04-23T11:55:21;99690.28;;;20.34;88.20
24486;BME280;13449;49.374;8.584;2023-04-23T11:57:49;99680.66;;;19.63;78.91
24486;BME280;13449;49.374;8.584;2023-04-23T12:00:19;99672.75;;;20.11;82.85
24486;BME280;13449;49.374;8.584;2023-04-23T12:02:58;99669.50;;;21.24;79.36
24486;BME280;13449;49.374;8.584;2023-04-23T12:08:09;99659.00;;;20.97;74.29
24486;BME280;13449;49.374;8.584;2023-04-23T12:10:51;99652.88;;;20.39;78.40
24486;BME280;13449;49.374;8.584;2023-04-23T12:13:23;99652.91;;;19.64;71.84
24486;BME280;13449;49.374;8.584;2023-04-23T12:15:56;99646.97;;;21.05;91.07
24486;BME280;13449;49.374;8.584;2023-04-23T12:18:29;99637.16;;;21.41;74.66
24486;BME280;13449;49.374;8.584;2023-04-23T12:21:04;99639.84;;;21.36;72.83
24486;BME280;13449;49.374;8.584;2023-04-23T12:23:30;99628.31;;;21.66;70.02
24486;BME280;13449;49.374;8.584;2023-04-23T12:25:58;99633.22;;;20.65;68.97
24486;BME280;13449;49.374;8.584;2023-04-23T12:28:26;99629.03;;;21.05;73.07
24486;BME280;13449;49.374;8.584;2023-04-23T12:31:00;99617.22;;;19.80;67.15
24486;BME280;13449;49.374;8.584;2023-04-23T12:33:30;99618.34;;;21.15;77.23
24486;BME280;13449;49.374;8.584;2023-04-23T12:35:59;99609.66;;;20.62;60.74
24486;BME280;13449;49.374;8.584;2023-04-23T12:38:27;99610.03;;;21.01;72.62
24486;BME280;13449;49.374;8.584;2023-04-23T12:40:58;99611.13;;;21.82;74.06
24486;BME280;13449;49.374;8.584;2023-04-23T12:43:25;99601.50;;;21.51;58.20
24486;BME280;13449;49.374;8.584;2023-04-23T12:45:55;99605.00;;;21.51;64.58
24486;BME280;13449;49.374;8.584;2023-04-23T12:48:21;99603.31;;;20.84;66.10
24486;BME280;13449;49.374;8.584;2023-04-23T12:50:48;99599.59;;;21.00;60.47
24486;BME280;13449;49.374;8.584;2023-04-23T12:53:17;99603.31;;;20.99;89.73
24486;BME280;13449;49.374;8.584;2023-04-23T12:55:46;99600.38;;;21.06;69.89
24486;BME280;13449;49.374;8.584;2023-04-23T12:58:13;99595.81;;;20.91;74.83
24486;BME280;13449;49.374;8.584;2023-04-23T13:00:39;99589.59;;;20.70;93.97
24486;BME280;13449;49.374;8.584;2023-04-23T13:03:06;99586.56;;;20.46;81.00
24486;BME280;13449;49.374;8.584;2023-04-23T13:05:33;99588.00;;;20.64;75.57
24486;BME280;13449;49.374;8.584;2023-04-23T13:08:00;99587.44;;;20.62;72.06
24486;BME280;13449;49.374;8.584;2023-04-23T13:10:27;99582.69;;;20.89;74.76